Time;durP1;ratioP1;P1;durP2;ratioP2;P2;SDS_P1;SDS_P2;PMS_P1;PMS_P2;Temp;Humidity;BMP_temperature;BMP_pressure;BME280_temperature;BME280_humidity;BME280_pressure;Samples;Min_cycle;Max_cycle;Signal;HPM_P1;HPM_P2
2024/04/26 00:00:12;;;;;;;;;;;;;;;;;;5480054;25;19956;-66
2024/04/26 00:02:37;;;;;;;;;;;;;;;;;;5479981;25;19939;-65
2024/04/26 00:05:02;;;;;;;;;;;;;;;;;;5480909;25;19939;-66
2024/04/26 00:07:28;;;;;;;;;;;;;;;;;;5480085;25;20402;-66
2024/04/26 00:09:53;;;;;;;;;;;;;;;;;;5480917;25;19928;-65
2024/04/26 00:12:18;;;;;;;;;;;;;;;;;;5479270;25;19939;-65
2024/04/26 00:14:43;;;;;;;;;;;;;;;;;;5479409;25;19963;-65
2024/04/26 00:17:08;;;;;;;;;;;;;;;;;;5480295;25;19928;-65
2024/04/26 00:19:33;;;;;;;;;;;;;;;;;;5480515;25;19939;-65
2024/04/26 00:21:58;;;;;;;;;;;;;;;;;;5484622;25;19971;-63
2024/04/26 00:24:23;;;;;;;;;;;;;;;;;;5479050;25;19928;-63
2024/04/26 00:26:50;;;;;;;;;;;;;;;;;;5479087;25;19928;-65
2024/04/26 00:29:15;;;;;;;;;;;;;;;;;;5480362;25;20368;-65
2024/04/26 00:31:40;;;;;;;;;;;;;;;;;;5478219;25;20825;-65
2024/04/26 00:34:05;;;;;;;;;;;;;;;;;;5478932;25;19928;-66
2024/04/26 00:36:30;;;;;;;;;;;;;;;;;;5482921;26;19935;-66
2024/04/26 00:38:55;;;;;;;;;;;;;;;;;;5479669;25;19940;-65
2024/04/26 00:41:20;;;;;;;;;;;;;;;;;;5479432;25;20000;-65
2024/04/26 00:43:45;;;;;;;;;;;;;;;;;;5479796;25;20405;-65
2024/04/26 00:46:11;;;;;;;;;;;;;;;;;;5478593;25;19928;-65
2024/04/26 00:48:36;;;;;;;;;;;;;;;;;;5479166;25;19928;-65
2024/04/26 00:51:01;;;;;;;;;;;;;;;;;;5477957;25;20471;-65
2024/04/26 00:53:26;;;;;;;;;;;;;;;;;;5478805;25;19939;-65
2024/04/26 00:55:52;;;;;;;;;;;;;;;;;;5478469;25;20812;-65
2024/04/26 00:58:17;;;;;;;;;;;;;;;;;;5479046;25;19995;-66
2024/04/26 01:00:42;;;;;;;;;;;;;;;;;;5478627;25;20000;-66
2024/04/26 01:03:07;;;;;;;;;;;;;;;;;;5479092;25;19977;-66
2024/04/26 01:05:32;;;;;;;;;;;;;;;;;;5477655;25;19946;-66
2024/04/26 01:07:57;;;;;;;;;;;;;;;;;;5478115;25;19944;-65
2024/04/26 01:10:22;;;;;;;;;;;;;;;;;;5477803;25;19928;-65
2024/04/26 01:12:47;;;;;;;;;;;;;;;;;;5479239;25;19935;-66
2024/04/26 01:15:12;;;;;;;;;;;;;;;;;;5476740;26;19940;-66
2024/04/26 01:17:38;;;;;;;;;;;;;;;;;;5478412;25;20306;-65
2024/04/26 01:20:03;;;;;;;;;;;;;;;;;;5454494;25;19939;-65
2024/04/26 01:22:29;;;;;;;;;;;;;;;;;;5479917;26;19928;-66
2024/04/26 01:24:54;;;;;;;;;;;;;;;;;;5477942;26;20356;-65
2024/04/26 01:27:19;;;;;;;;;;;;;;;;;;5477701;26;20001;-65
2024/04/26 01:29:44;;;;;;;;;;;;;;;;;;5478644;26;20005;-63
2024/04/26 01:32:09;;;;;;;;;;;;;;;;;;5476534;26;19931;-63
2024/04/26 01:34:34;;;;;;;;;;;;;;;;;;5465915;26;19952;-66
2024/04/26 01:36:59;;;;;;;;;;;;;;;;;;5480298;26;20511;-65
2024/04/26 01:39:24;;;;;;;;;;;;;;;;;;5482067;26;19935;-65
2024/04/26 01:41:49;;;;;;;;;;;;;;;;;;5482045;26;19940;-66
2024/04/26 01:44:15;;;;;;;;;;;;;;;;;;5480623;26;19940;-65
2024/04/26 01:46:40;;;;;;;;;;;;;;;;;;5481503;26;19934;-65
2024/04/26 01:49:06;;;;;;;;;;;;;;;;;;5482325;26;19928;-65
2024/04/26 01:51:31;;;;;;;;;;;;;;;;;;5479493;26;20432;-66
2024/04/26 01:53:56;;;;;;;;;;;;;;;;;;5481595;26;20393;-65
2024/04/26 01:56:21;;;;;;;;;;;;;;;;;;5481553;26;19983;-66
2024/04/26 01:58:46;;;;;;;;;;;;;;;;;;5481896;26;19987;-67
2024/04/26 02:01:11;;;;;;;;;;;;;;;;;;5481881;26;19928;-67
2024/04/26 02:03:36;;;;;;;;;;;;;;;;;;5480638;26;20477;-66
2024/04/26 02:06:01;;;;;;;;;;;;;;;;;;5472597;26;19932;-67
2024/04/26 02:08:26;;;;;;;;;;;;;;;;;;5451250;26;20380;-67
2024/04/26 02:10:52;;;;;;;;;;;;;;;;;;5481778;26;19932;-67
2024/04/26 02:13:17;;;;;;;;;;;;;;;;;;5480339;26;19936;-67
2024/04/26 02:15:42;;;;;;;;;;;;;;;;;;5481083;25;19928;-67
2024/04/26 02:18:07;;;;;;;;;;;;;;;;;;5481537;25;19927;-67
2024/04/26 02:20:32;;;;;;;;;;;;;;;;;;5489776;25;19931;-67
2024/04/26 02:22:57;;;;;;;;;;;;;;;;;;5493632;25;19935;-67
2024/04/26 02:25:22;;;;;;;;;;;;;;;;;;5481975;25;19969;-67
2024/04/26 02:27:48;;;;;;;;;;;;;;;;;;5481892;25;19928;-67
2024/04/26 02:30:13;;;;;;;;;;;;;;;;;;5481610;25;19928;-68
2024/04/26 02:32:38;;;;;;;;;;;;;;;;;;5481835;25;20294;-67
2024/04/26 02:35:03;;;;;;;;;;;;;;;;;;5481097;25;20098;-67
2024/04/26 02:37:28;;;;;;;;;;;;;;;;;;5484385;25;20343;-67
2024/04/26 02:39:53;;;;;;;;;;;;;;;;;;5453600;25;19928;-67
2024/04/26 02:42:18;;;;;;;;;;;;;;;;;;5444747;26;20403;-67
2024/04/26 02:44:43;;;;;;;;;;;;;;;;;;5455770;26;19935;-67
2024/04/26 02:47:08;;;;;;;;;;;;;;;;;;5481428;25;19928;-66
2024/04/26 02:49:33;;;;;;;;;;;;;;;;;;5480726;25;19936;-68
2024/04/26 02:51:59;;;;;;;;;;;;;;;;;;5481189;25;20233;-67
2024/04/26 02:54:24;;;;;;;;;;;;;;;;;;5480521;25;19939;-67
2024/04/26 02:56:49;;;;;;;;;;;;;;;;;;5468079;25;19964;-67
2024/04/26 02:59:14;;;;;;;;;;;;;;;;;;5450489;26;19940;-67
2024/04/26 03:01:39;;;;;;;;;;;;;;;;;;5468947;26;20001;-66
2024/04/26 03:04:04;;;;;;;;;;;;;;;;;;5481295;25;19946;-67
2024/04/26 03:06:29;;;;;;;;;;;;;;;;;;5480191;25;19928;-67
2024/04/26 03:08:54;;;;;;;;;;;;;;;;;;5480992;25;19936;-66
2024/04/26 03:11:19;;;;;;;;;;;;;;;;;;5480487;25;19928;-67
2024/04/26 03:13:44;;;;;;;;;;;;;;;;;;5480445;25;19931;-66
2024/04/26 03:16:10;;;;;;;;;;;;;;;;;;5464521;25;20321;-66
2024/04/26 03:18:35;;;;;;;;;;;;;;;;;;5480595;25;19928;-67
2024/04/26 03:21:00;;;;;;;;;;;;;;;;;;5491184;25;20001;-66
2024/04/26 03:23:25;;;;;;;;;;;;;;;;;;5480768;25;19935;-66
2024/04/26 03:25:50;;;;;;;;;;;;;;;;;;5488205;25;19928;-68
2024/04/26 03:28:15;;;;;;;;;;;;;;;;;;5480303;25;19928;-67
2024/04/26 03:30:40;;;;;;;;;;;;;;;;;;5479162;25;19928;-66
2024/04/26 03:33:06;;;;;;;;;;;;;;;;;;5480195;25;20340;-66
2024/04/26 03:35:33;;;;;;;;;;;;;;;;;;5487543;25;19934;-66
2024/04/26 03:37:58;;;;;;;;;;;;;;;;;;5480683;26;19934;-68
2024/04/26 03:40:23;;;;;;;;;;;;;;;;;;5480401;25;19928;-68
2024/04/26 03:42:48;;;;;;;;;;;;;;;;;;5480299;25;19997;-67
2024/04/26 03:45:13;;;;;;;;;;;;;;;;;;5469901;25;19928;-67
2024/04/26 03:47:38;;;;;;;;;;;;;;;;;;5475244;25;19932;-68
2024/04/26 03:50:03;;;;;;;;;;;;;;;;;;5479985;25;19935;-67
2024/04/26 03:52:28;;;;;;;;;;;;;;;;;;5479604;25;19935;-67
2024/04/26 03:54:53;;;;;;;;;;;;;;;;;;5480317;25;19928;-68
2024/04/26 03:57:18;;;;;;;;;;;;;;;;;;5478430;26;19935;-67
2024/04/26 03:59:44;;;;;;;;;;;;;;;;;;5481063;25;20381;-67
2024/04/26 04:02:09;;;;;;;;;;;;;;;;;;5479675;25;19976;-67
2024/04/26 04:04:34;;;;;;;;;;;;;;;;;;5479201;25;20455;-68
2024/04/26 04:06:59;;;;;;;;;;;;;;;;;;5465307;25;19940;-67
2024/04/26 04:09:24;;;;;;;;;;;;;;;;;;5465059;26;19936;-67
2024/04/26 04:11:49;;;;;;;;;;;;;;;;;;5480021;25;19940;-65
2024/04/26 04:14:14;;;;;;;;;;;;;;;;;;5476835;25;20051;-67
2024/04/26 04:16:39;;;;;;;;;;;;;;;;;;5478862;25;19940;-66
2024/04/26 04:19:04;;;;;;;;;;;;;;;;;;5479197;25;19995;-68
2024/04/26 04:21:29;;;;;;;;;;;;;;;;;;5478910;25;19927;-67
2024/04/26 04:23:56;;;;;;;;;;;;;;;;;;5478850;25;19928;-67
2024/04/26 04:26:21;;;;;;;;;;;;;;;;;;5478947;25;20273;-68
2024/04/26 04:28:47;;;;;;;;;;;;;;;;;;5479259;25;20607;-66
2024/04/26 04:31:12;;;;;;;;;;;;;;;;;;5479795;25;19935;-68
2024/04/26 04:33:37;;;;;;;;;;;;;;;;;;5479113;25;19934;-65
2024/04/26 04:36:02;;;;;;;;;;;;;;;;;;5481592;25;19973;-68
2024/04/26 04:38:27;;;;;;;;;;;;;;;;;;5479350;25;19932;-64
2024/04/26 04:40:52;;;;;;;;;;;;;;;;;;5479736;25;19960;-67
2024/04/26 04:43:17;;;;;;;;;;;;;;;;;;5480101;25;19927;-67
2024/04/26 04:45:42;;;;;;;;;;;;;;;;;;5478629;25;20357;-65
2024/04/26 04:48:08;;;;;;;;;;;;;;;;;;5479529;25;19932;-65
2024/04/26 04:50:33;;;;;;;;;;;;;;;;;;5479774;25;19928;-66
2024/04/26 04:52:58;;;;;;;;;;;;;;;;;;5478721;25;19928;-67
2024/04/26 04:55:23;;;;;;;;;;;;;;;;;;5479077;25;19969;-67
2024/04/26 04:57:48;;;;;;;;;;;;;;;;;;5478923;25;19935;-67
2024/04/26 05:00:13;;;;;;;;;;;;;;;;;;5469662;25;20328;-67
2024/04/26 05:02:38;;;;;;;;;;;;;;;;;;5473894;25;19939;-68
2024/04/26 05:05:05;;;;;;;;;;;;;;;;;;5478413;25;20010;-67
2024/04/26 05:07:30;;;;;;;;;;;;;;;;;;5478726;25;19940;-67
2024/04/26 05:09:55;;;;;;;;;;;;;;;;;;5481588;25;19932;-67
2024/04/26 05:12:20;;;;;;;;;;;;;;;;;;5480126;25;19939;-67
2024/04/26 05:14:45;;;;;;;;;;;;;;;;;;5482121;25;20417;-67
2024/04/26 05:17:10;;;;;;;;;;;;;;;;;;5482646;25;19956;-67
2024/04/26 05:19:35;;;;;;;;;;;;;;;;;;5480455;26;20144;-67
2024/04/26 05:22:00;;;;;;;;;;;;;;;;;;5493303;25;20273;-67
2024/04/26 05:24:26;;;;;;;;;;;;;;;;;;5476110;25;19928;-67
2024/04/26 05:26:52;;;;;;;;;;;;;;;;;;5442826;26;19932;-67
2024/04/26 05:29:17;;;;;;;;;;;;;;;;;;5446268;26;19956;-68
2024/04/26 05:31:42;;;;;;;;;;;;;;;;;;5445075;26;20284;-67
2024/04/26 05:34:07;;;;;;;;;;;;;;;;;;5446425;26;19928;-66
2024/04/26 05:36:33;;;;;;;;;;;;;;;;;;5473647;26;19940;-65
2024/04/26 05:38:58;;;;;;;;;;;;;;;;;;5451264;26;19935;-67
2024/04/26 05:41:23;;;;;;;;;;;;;;;;;;5480733;26;20357;-67
2024/04/26 05:43:48;;;;;;;;;;;;;;;;;;5481904;26;19995;-68
2024/04/26 05:46:13;;;;;;;;;;;;;;;;;;5480934;25;20272;-67
2024/04/26 05:48:38;;;;;;;;;;;;;;;;;;5481618;25;20292;-69
2024/04/26 05:51:03;;;;;;;;;;;;;;;;;;5481980;25;19928;-65
2024/04/26 05:53:28;;;;;;;;;;;;;;;;;;5481598;25;19928;-66
2024/04/26 05:55:54;;;;;;;;;;;;;;;;;;5481295;25;19932;-67
2024/04/26 05:58:20;;;;;;;;;;;;;;;;;;5482037;25;20474;-68
2024/04/26 06:00:45;;;;;;;;;;;;;;;;;;5483304;25;20173;-68
2024/04/26 06:03:10;;;;;;;;;;;;;;;;;;5496534;25;19928;-66
2024/04/26 06:05:35;;;;;;;;;;;;;;;;;;5511623;25;20375;-66
2024/04/26 06:08:00;;;;;;;;;;;;;;;;;;5481775;25;20494;-67
2024/04/26 06:10:27;;;;;;;;;;;;;;;;;;5480700;25;20369;-66
2024/04/26 06:12:52;;;;;;;;;;;;;;;;;;5480347;25;20202;-66
2024/04/26 06:15:17;;;;;;;;;;;;;;;;;;5480800;25;19935;-66
2024/04/26 06:17:42;;;;;;;;;;;;;;;;;;5481637;25;19939;-66
2024/04/26 06:20:08;;;;;;;;;;;;;;;;;;5487380;25;19928;-66
2024/04/26 06:22:33;;;;;;;;;;;;;;;;;;5490446;25;19928;-66
2024/04/26 06:24:58;;;;;;;;;;;;;;;;;;5480903;25;20471;-66
2024/04/26 06:27:23;;;;;;;;;;;;;;;;;;5480738;25;19939;-66
2024/04/26 06:29:48;;;;;;;;;;;;;;;;;;5481609;25;20366;-66
2024/04/26 06:32:14;;;;;;;;;;;;;;;;;;5480878;25;19996;-66
2024/04/26 06:34:39;;;;;;;;;;;;;;;;;;5481903;25;19935;-67
2024/04/26 06:37:07;;;;;;;;;;;;;;;;;;5480002;26;20272;-66
2024/04/26 06:39:32;;;;;;;;;;;;;;;;;;5480306;25;19928;-68
2024/04/26 06:41:57;;;;;;;;;;;;;;;;;;5477246;25;19928;-66
2024/04/26 06:44:22;;;;;;;;;;;;;;;;;;5472721;25;19964;-66
2024/04/26 06:46:47;;;;;;;;;;;;;;;;;;5479399;25;20265;-66
2024/04/26 06:49:12;;;;;;;;;;;;;;;;;;5480389;25;19940;-66
2024/04/26 06:51:37;;;;;;;;;;;;;;;;;;5478351;25;20000;-67
2024/04/26 06:54:02;;;;;;;;;;;;;;;;;;5479518;25;19942;-67
2024/04/26 06:56:27;;;;;;;;;;;;;;;;;;5480279;25;19940;-66
2024/04/26 06:58:52;;;;;;;;;;;;;;;;;;5466100;25;19968;-67
2024/04/26 07:01:17;;;;;;;;;;;;;;;;;;5476542;25;19932;-66
2024/04/26 07:03:43;;;;;;;;;;;;;;;;;;5478607;25;19999;-67
2024/04/26 07:06:08;;;;;;;;;;;;;;;;;;5469105;25;19974;-66
2024/04/26 07:08:33;;;;;;;;;;;;;;;;;;5477449;25;19939;-66
2024/04/26 07:10:58;;;;;;;;;;;;;;;;;;5477962;25;19928;-66
2024/04/26 07:13:23;;;;;;;;;;;;;;;;;;5471214;25;19936;-67
2024/04/26 07:15:49;;;;;;;;;;;;;;;;;;5441696;26;19928;-68
2024/04/26 07:18:14;;;;;;;;;;;;;;;;;;5474673;25;20369;-66
2024/04/26 07:20:39;;;;;;;;;;;;;;;;;;5476058;25;19981;-67
2024/04/26 07:23:04;;;;;;;;;;;;;;;;;;5479035;25;20421;-67
2024/04/26 07:25:29;;;;;;;;;;;;;;;;;;5479630;25;19939;-67
2024/04/26 07:27:54;;;;;;;;;;;;;;;;;;5463955;25;20019;-67
2024/04/26 07:30:19;;;;;;;;;;;;;;;;;;5464067;25;20005;-67
2024/04/26 07:32:44;;;;;;;;;;;;;;;;;;5469366;25;19932;-68
2024/04/26 07:35:09;;;;;;;;;;;;;;;;;;5478930;25;19936;-67
2024/04/26 07:37:34;;;;;;;;;;;;;;;;;;5477207;25;20206;-66
2024/04/26 07:39:59;;;;;;;;;;;;;;;;;;5462569;25;19934;-66
2024/04/26 07:42:25;;;;;;;;;;;;;;;;;;5469793;25;19951;-67
2024/04/26 07:44:53;;;;;;;;;;;;;;;;;;5474348;25;19979;-67
2024/04/26 07:47:21;;;;;;;;;;;;;;;;;;5477138;25;19934;-66
2024/04/26 07:49:46;;;;;;;;;;;;;;;;;;5468921;25;20383;-67
2024/04/26 07:52:11;;;;;;;;;;;;;;;;;;5467097;25;20456;-66
2024/04/26 07:54:36;;;;;;;;;;;;;;;;;;5468219;25;19935;-66
2024/04/26 07:57:01;;;;;;;;;;;;;;;;;;5472979;25;19996;-66
2024/04/26 07:59:26;;;;;;;;;;;;;;;;;;5475566;25;19932;-67
2024/04/26 08:01:52;;;;;;;;;;;;;;;;;;5470127;25;19928;-65
2024/04/26 08:04:17;;;;;;;;;;;;;;;;;;5466953;25;19966;-65
2024/04/26 08:06:42;;;;;;;;;;;;;;;;;;5468811;25;19928;-63
2024/04/26 08:09:07;;;;;;;;;;;;;;;;;;5474468;25;19936;-66
2024/04/26 08:11:32;;;;;;;;;;;;;;;;;;5479558;25;19999;-67
2024/04/26 08:13:57;;;;;;;;;;;;;;;;;;5479017;25;19928;-67
2024/04/26 08:16:24;;;;;;;;;;;;;;;;;;5464778;25;19928;-66
2024/04/26 08:18:49;;;;;;;;;;;;;;;;;;5467848;25;19950;-66
2024/04/26 08:21:14;;;;;;;;;;;;;;;;;;5458874;26;20308;-67
2024/04/26 08:23:40;;;;;;;;;;;;;;;;;;5442700;26;19936;-67
2024/04/26 08:26:05;;;;;;;;;;;;;;;;;;5476065;25;19932;-66
2024/04/26 08:28:31;;;;;;;;;;;;;;;;;;5477481;25;19935;-67
2024/04/26 08:30:58;;;;;;;;;;;;;;;;;;5462294;25;19936;-67
2024/04/26 08:33:23;;;;;;;;;;;;;;;;;;5463276;25;20368;-66
2024/04/26 08:35:48;;;;;;;;;;;;;;;;;;5477473;25;20268;-66
2024/04/26 08:38:13;;;;;;;;;;;;;;;;;;5471856;25;19964;-66
2024/04/26 08:40:38;;;;;;;;;;;;;;;;;;5452389;25;19935;-67
2024/04/26 08:43:03;;;;;;;;;;;;;;;;;;5476922;25;20609;-66
2024/04/26 08:45:28;;;;;;;;;;;;;;;;;;5479909;25;19960;-67
2024/04/26 08:47:53;;;;;;;;;;;;;;;;;;5478800;25;20471;-68
2024/04/26 08:50:18;;;;;;;;;;;;;;;;;;5477522;25;19940;-67
2024/04/26 08:52:43;;;;;;;;;;;;;;;;;;5478792;25;19927;-67
2024/04/26 08:55:09;;;;;;;;;;;;;;;;;;5478401;25;19960;-67
2024/04/26 08:57:34;;;;;;;;;;;;;;;;;;5478947;25;19953;-67
2024/04/26 08:59:59;;;;;;;;;;;;;;;;;;5479117;25;19956;-66
2024/04/26 09:02:24;;;;;;;;;;;;;;;;;;5478890;25;19944;-68
2024/04/26 09:04:49;;;;;;;;;;;;;;;;;;5479879;25;19928;-67
2024/04/26 09:07:14;;;;;;;;;;;;;;;;;;5478153;25;19934;-67
2024/04/26 09:09:39;;;;;;;;;;;;;;;;;;5479249;25;19927;-67
2024/04/26 09:12:04;;;;;;;;;;;;;;;;;;5476820;25;19931;-67
2024/04/26 09:14:29;;;;;;;;;;;;;;;;;;5479137;25;20479;-67
2024/04/26 09:16:54;;;;;;;;;;;;;;;;;;5477933;25;19943;-67
2024/04/26 09:19:20;;;;;;;;;;;;;;;;;;5479459;25;19935;-66
2024/04/26 09:21:45;;;;;;;;;;;;;;;;;;5479757;25;19935;-67
2024/04/26 09:24:10;;;;;;;;;;;;;;;;;;5478283;25;19927;-67
2024/04/26 09:26:35;;;;;;;;;;;;;;;;;;5478117;25;19960;-67
2024/04/26 09:29:00;;;;;;;;;;;;;;;;;;5479688;25;19935;-67
2024/04/26 09:31:25;;;;;;;;;;;;;;;;;;5479567;25;19961;-66
2024/04/26 09:33:50;;;;;;;;;;;;;;;;;;5452132;25;19929;-66
2024/04/26 09:36:15;;;;;;;;;;;;;;;;;;5456748;26;19932;-67
2024/04/26 09:38:40;;;;;;;;;;;;;;;;;;5477677;26;20196;-67
2024/04/26 09:41:06;;;;;;;;;;;;;;;;;;5479030;25;20424;-67
2024/04/26 09:43:31;;;;;;;;;;;;;;;;;;5478174;25;19932;-67
2024/04/26 09:45:56;;;;;;;;;;;;;;;;;;5477903;25;20265;-68
2024/04/26 09:48:21;;;;;;;;;;;;;;;;;;5471073;25;19971;-67
2024/04/26 09:50:46;;;;;;;;;;;;;;;;;;5470818;25;19934;-67
2024/04/26 09:53:11;;;;;;;;;;;;;;;;;;5477785;25;19935;-67
2024/04/26 09:55:36;;;;;;;;;;;;;;;;;;5480715;25;19952;-67
2024/04/26 09:58:02;;;;;;;;;;;;;;;;;;5479868;26;19928;-67
2024/04/26 10:00:29;;;;;;;;;;;;;;;;;;5481185;25;19956;-67
2024/04/26 10:02:56;;;;;;;;;;;;;;;;;;5481614;25;19928;-69
2024/04/26 10:05:21;;;;;;;;;;;;;;;;;;5482056;25;19935;-67
2024/04/26 10:07:46;;;;;;;;;;;;;;;;;;5456352;25;19940;-68
2024/04/26 10:10:13;;;;;;;;;;;;;;;;;;5445228;26;19986;-67
2024/04/26 10:12:38;;;;;;;;;;;;;;;;;;5445342;26;19967;-68
2024/04/26 10:15:04;;;;;;;;;;;;;;;;;;5445282;26;19928;-68
2024/04/26 10:17:31;;;;;;;;;;;;;;;;;;5467408;26;21371;-67
2024/04/26 10:19:56;;;;;;;;;;;;;;;;;;5483925;25;19928;-67
2024/04/26 10:22:21;;;;;;;;;;;;;;;;;;5481443;25;19928;-68
2024/04/26 10:24:52;;;;;;;;;;;;;;;;;;5470557;25;19996;-67
2024/04/26 10:27:17;;;;;;;;;;;;;;;;;;5439065;26;19936;-69
2024/04/26 10:29:42;;;;;;;;;;;;;;;;;;5440669;26;19937;-69
2024/04/26 10:32:08;;;;;;;;;;;;;;;;;;5442344;26;19938;-67
2024/04/26 10:34:33;;;;;;;;;;;;;;;;;;5443684;26;19953;-68
2024/04/26 10:37:00;;;;;;;;;;;;;;;;;;5445627;26;19964;-67
2024/04/26 10:39:25;;;;;;;;;;;;;;;;;;5472601;26;19928;-68
2024/04/26 10:41:50;;;;;;;;;;;;;;;;;;5476894;25;19940;-66
2024/04/26 10:44:15;;;;;;;;;;;;;;;;;;5476668;25;19936;-67
2024/04/26 10:46:40;;;;;;;;;;;;;;;;;;5471400;25;19936;-67
2024/04/26 10:49:05;;;;;;;;;;;;;;;;;;5475037;26;19928;-68
2024/04/26 10:51:30;;;;;;;;;;;;;;;;;;5468723;25;20280;-67
2024/04/26 10:53:56;;;;;;;;;;;;;;;;;;5473563;25;20386;-68
2024/04/26 10:56:21;;;;;;;;;;;;;;;;;;5474827;25;20392;-67
2024/04/26 10:58:46;;;;;;;;;;;;;;;;;;5463168;25;19961;-68
2024/04/26 11:01:11;;;;;;;;;;;;;;;;;;5485509;25;20448;-67
2024/04/26 11:03:36;;;;;;;;;;;;;;;;;;5487569;25;19927;-68
2024/04/26 11:06:01;;;;;;;;;;;;;;;;;;5476491;25;19948;-67
2024/04/26 11:08:27;;;;;;;;;;;;;;;;;;5461693;25;20018;-67
2024/04/26 11:10:52;;;;;;;;;;;;;;;;;;5462836;26;19934;-67
2024/04/26 11:13:17;;;;;;;;;;;;;;;;;;5464898;25;19935;-67
2024/04/26 11:15:42;;;;;;;;;;;;;;;;;;5473760;26;20313;-67
2024/04/26 11:18:07;;;;;;;;;;;;;;;;;;5479047;25;19936;-68
2024/04/26 11:20:32;;;;;;;;;;;;;;;;;;5487001;26;20284;-68
2024/04/26 11:22:57;;;;;;;;;;;;;;;;;;5476982;26;20392;-67
2024/04/26 11:25:22;;;;;;;;;;;;;;;;;;5479864;26;20021;-69
2024/04/26 11:27:47;;;;;;;;;;;;;;;;;;5466777;26;19928;-68
2024/04/26 11:30:12;;;;;;;;;;;;;;;;;;5481602;25;20361;-68
2024/04/26 11:32:38;;;;;;;;;;;;;;;;;;5467635;25;19997;-67
2024/04/26 11:35:03;;;;;;;;;;;;;;;;;;5473307;25;20348;-68
2024/04/26 11:37:28;;;;;;;;;;;;;;;;;;5469985;25;19934;-67
2024/04/26 11:39:53;;;;;;;;;;;;;;;;;;5472201;25;20387;-68
2024/04/26 11:42:18;;;;;;;;;;;;;;;;;;5496033;25;19928;-67
2024/04/26 11:44:43;;;;;;;;;;;;;;;;;;5487412;25;19928;-67
2024/04/26 11:47:09;;;;;;;;;;;;;;;;;;5483554;25;20480;-67
2024/04/26 11:49:35;;;;;;;;;;;;;;;;;;5476983;25;20360;-67
2024/04/26 11:52:00;;;;;;;;;;;;;;;;;;5470231;25;19929;-68
2024/04/26 11:54:25;;;;;;;;;;;;;;;;;;5492148;25;20049;-67
2024/04/26 11:56:50;;;;;;;;;;;;;;;;;;5478312;25;19931;-67
2024/04/26 11:59:15;;;;;;;;;;;;;;;;;;5490618;25;19934;-66
2024/04/26 12:01:40;;;;;;;;;;;;;;;;;;5465729;25;20369;-66
2024/04/26 12:04:05;;;;;;;;;;;;;;;;;;5432680;26;20392;-67
2024/04/26 12:06:30;;;;;;;;;;;;;;;;;;5437528;26;19932;-68
2024/04/26 12:08:55;;;;;;;;;;;;;;;;;;5474007;25;19935;-67
2024/04/26 12:11:21;;;;;;;;;;;;;;;;;;5470289;25;19928;-66
2024/04/26 12:13:48;;;;;;;;;;;;;;;;;;5482880;26;19935;-67
2024/04/26 12:16:13;;;;;;;;;;;;;;;;;;5486758;25;20408;-68
2024/04/26 12:18:38;;;;;;;;;;;;;;;;;;5476031;26;20349;-69
2024/04/26 12:21:03;;;;;;;;;;;;;;;;;;5487290;26;19968;-68
2024/04/26 12:23:28;;;;;;;;;;;;;;;;;;5477330;25;20313;-69
2024/04/26 12:25:53;;;;;;;;;;;;;;;;;;5497575;25;19996;-69
2024/04/26 12:28:18;;;;;;;;;;;;;;;;;;5497934;25;19928;-69
2024/04/26 12:30:43;;;;;;;;;;;;;;;;;;5488783;25;19940;-69
2024/04/26 12:33:08;;;;;;;;;;;;;;;;;;5473549;26;19928;-69
2024/04/26 12:35:34;;;;;;;;;;;;;;;;;;5486417;26;19960;-67
2024/04/26 12:37:59;;;;;;;;;;;;;;;;;;5452909;26;19929;-68
2024/04/26 12:40:28;;;;;;;;;;;;;;;;;;5463224;25;19946;-68
2024/04/26 12:42:54;;;;;;;;;;;;;;;;;;5469585;25;20407;-68
2024/04/26 12:45:19;;;;;;;;;;;;;;;;;;5489831;25;19944;-68
2024/04/26 12:47:45;;;;;;;;;;;;;;;;;;5497749;25;19996;-68
2024/04/26 12:50:10;;;;;;;;;;;;;;;;;;5461736;25;19948;-67
2024/04/26 12:52:35;;;;;;;;;;;;;;;;;;5467854;26;19983;-68
2024/04/26 12:55:00;;;;;;;;;;;;;;;;;;5471595;26;20405;-68
2024/04/26 12:57:27;;;;;;;;;;;;;;;;;;5479812;26;19928;-68
2024/04/26 12:59:52;;;;;;;;;;;;;;;;;;5481997;25;20058;-68
2024/04/26 13:02:18;;;;;;;;;;;;;;;;;;5477209;26;19928;-67
2024/04/26 13:04:43;;;;;;;;;;;;;;;;;;5480026;25;20353;-68
2024/04/26 13:07:08;;;;;;;;;;;;;;;;;;5470264;25;19939;-70
2024/04/26 13:09:34;;;;;;;;;;;;;;;;;;5484533;26;20417;-68
2024/04/26 13:11:59;;;;;;;;;;;;;;;;;;5475014;25;19936;-68
2024/04/26 13:14:25;;;;;;;;;;;;;;;;;;5501940;25;20379;-68
2024/04/26 13:16:50;;;;;;;;;;;;;;;;;;5474059;26;19938;-68
2024/04/26 13:19:15;;;;;;;;;;;;;;;;;;5463185;25;19928;-68
2024/04/26 13:21:40;;;;;;;;;;;;;;;;;;5484624;25;19928;-68
2024/04/26 13:24:05;;;;;;;;;;;;;;;;;;5477373;25;19928;-68
2024/04/26 13:26:30;;;;;;;;;;;;;;;;;;5487548;26;20011;-68
2024/04/26 13:28:55;;;;;;;;;;;;;;;;;;5497280;25;19927;-68
2024/04/26 13:31:20;;;;;;;;;;;;;;;;;;5495873;25;19938;-69
2024/04/26 13:33:45;;;;;;;;;;;;;;;;;;5490424;25;20301;-69
2024/04/26 13:36:11;;;;;;;;;;;;;;;;;;5479665;25;20242;-68
2024/04/26 13:38:36;;;;;;;;;;;;;;;;;;5475559;26;19932;-68
2024/04/26 13:41:01;;;;;;;;;;;;;;;;;;5496027;25;19928;-68
2024/04/26 13:43:31;;;;;;;;;;;;;;;;;;5465223;26;19939;-68
2024/04/26 13:45:57;;;;;;;;;;;;;;;;;;5471363;25;19939;-68
2024/04/26 13:48:22;;;;;;;;;;;;;;;;;;5480419;25;19928;-68
2024/04/26 13:50:47;;;;;;;;;;;;;;;;;;5458319;26;20022;-69
2024/04/26 13:53:12;;;;;;;;;;;;;;;;;;5463239;26;20309;-69
2024/04/26 13:55:37;;;;;;;;;;;;;;;;;;5478506;25;20466;-68
2024/04/26 13:58:02;;;;;;;;;;;;;;;;;;5481470;25;19936;-68
2024/04/26 14:00:27;;;;;;;;;;;;;;;;;;5480627;25;19960;-68
2024/04/26 14:02:52;;;;;;;;;;;;;;;;;;5470067;26;19947;-69
2024/04/26 14:05:19;;;;;;;;;;;;;;;;;;5467614;26;19935;-68
2024/04/26 14:07:44;;;;;;;;;;;;;;;;;;5465820;25;19935;-67
2024/04/26 14:10:09;;;;;;;;;;;;;;;;;;5464498;25;19932;-70
2024/04/26 14:12:34;;;;;;;;;;;;;;;;;;5478151;26;19936;-69
2024/04/26 14:14:59;;;;;;;;;;;;;;;;;;5474991;25;19943;-68
2024/04/26 14:17:24;;;;;;;;;;;;;;;;;;5472684;26;19928;-68
2024/04/26 14:19:49;;;;;;;;;;;;;;;;;;5482043;25;19928;-68
2024/04/26 14:22:14;;;;;;;;;;;;;;;;;;5464110;25;20278;-68
2024/04/26 14:24:40;;;;;;;;;;;;;;;;;;5463647;26;19952;-68
2024/04/26 14:27:05;;;;;;;;;;;;;;;;;;5470370;25;19936;-68
2024/04/26 14:29:33;;;;;;;;;;;;;;;;;;5470750;26;20033;-67
2024/04/26 14:31:58;;;;;;;;;;;;;;;;;;5468178;25;20213;-67
2024/04/26 14:34:24;;;;;;;;;;;;;;;;;;5476434;26;20982;-68
2024/04/26 14:36:50;;;;;;;;;;;;;;;;;;5478594;26;19928;-68
2024/04/26 14:39:15;;;;;;;;;;;;;;;;;;5459471;26;19952;-67
2024/04/26 14:41:42;;;;;;;;;;;;;;;;;;5473223;25;20361;-67
2024/04/26 14:44:07;;;;;;;;;;;;;;;;;;5478139;26;19943;-68
2024/04/26 14:46:33;;;;;;;;;;;;;;;;;;5476155;25;19928;-67
2024/04/26 14:48:58;;;;;;;;;;;;;;;;;;5479339;25;19951;-68
2024/04/26 14:51:23;;;;;;;;;;;;;;;;;;5473504;25;19928;-67
2024/04/26 14:53:48;;;;;;;;;;;;;;;;;;5478809;25;19935;-67
2024/04/26 14:56:13;;;;;;;;;;;;;;;;;;5473456;25;19937;-68
2024/04/26 14:58:38;;;;;;;;;;;;;;;;;;5477289;25;20325;-67
2024/04/26 15:01:03;;;;;;;;;;;;;;;;;;5465799;26;19939;-67
2024/04/26 15:03:28;;;;;;;;;;;;;;;;;;5475593;26;19928;-68
2024/04/26 15:05:53;;;;;;;;;;;;;;;;;;5484987;25;20330;-69
2024/04/26 15:08:19;;;;;;;;;;;;;;;;;;5460110;25;19960;-67
2024/04/26 15:10:44;;;;;;;;;;;;;;;;;;5465312;26;19938;-67
2024/04/26 15:13:09;;;;;;;;;;;;;;;;;;5470093;25;20254;-68
2024/04/26 15:15:34;;;;;;;;;;;;;;;;;;5468187;25;19928;-68
2024/04/26 15:17:59;;;;;;;;;;;;;;;;;;5480034;25;20358;-67
2024/04/26 15:20:25;;;;;;;;;;;;;;;;;;5477563;25;19934;-67
2024/04/26 15:22:50;;;;;;;;;;;;;;;;;;5478495;25;19928;-67
2024/04/26 15:25:15;;;;;;;;;;;;;;;;;;5466936;26;20385;-68
2024/04/26 15:27:41;;;;;;;;;;;;;;;;;;5483893;25;19928;-67
2024/04/26 15:30:06;;;;;;;;;;;;;;;;;;5512474;25;19952;-68
2024/04/26 15:32:32;;;;;;;;;;;;;;;;;;5470309;26;19946;-69
2024/04/26 15:34:57;;;;;;;;;;;;;;;;;;5470305;25;20183;-67
2024/04/26 15:37:22;;;;;;;;;;;;;;;;;;5492925;26;19935;-68
2024/04/26 15:39:47;;;;;;;;;;;;;;;;;;5476265;25;19927;-68
2024/04/26 15:42:12;;;;;;;;;;;;;;;;;;5489991;25;19928;-69
2024/04/26 15:44:39;;;;;;;;;;;;;;;;;;5465988;26;19935;-67
2024/04/26 15:47:05;;;;;;;;;;;;;;;;;;5465834;25;19928;-67
2024/04/26 15:49:30;;;;;;;;;;;;;;;;;;5473828;26;19935;-67
2024/04/26 15:51:55;;;;;;;;;;;;;;;;;;5474938;25;20277;-67
2024/04/26 15:54:20;;;;;;;;;;;;;;;;;;5494969;25;19928;-68
2024/04/26 15:56:45;;;;;;;;;;;;;;;;;;5467137;26;19959;-67
2024/04/26 15:59:10;;;;;;;;;;;;;;;;;;5477335;26;19934;-67
2024/04/26 16:01:36;;;;;;;;;;;;;;;;;;5492575;25;19993;-67
2024/04/26 16:04:01;;;;;;;;;;;;;;;;;;5465032;26;20028;-68
2024/04/26 16:06:26;;;;;;;;;;;;;;;;;;5472444;25;20914;-68
2024/04/26 16:08:53;;;;;;;;;;;;;;;;;;5484367;25;19927;-68
2024/04/26 16:11:20;;;;;;;;;;;;;;;;;;5482437;25;19935;-67
2024/04/26 16:13:45;;;;;;;;;;;;;;;;;;5460730;26;19951;-68
2024/04/26 16:16:10;;;;;;;;;;;;;;;;;;5458663;26;19928;-67
2024/04/26 16:18:35;;;;;;;;;;;;;;;;;;5480117;25;20869;-69
2024/04/26 16:21:00;;;;;;;;;;;;;;;;;;5498083;25;19927;-67
2024/04/26 16:23:25;;;;;;;;;;;;;;;;;;5496145;26;19959;-69
2024/04/26 16:25:50;;;;;;;;;;;;;;;;;;5453487;26;20508;-69
2024/04/26 16:28:16;;;;;;;;;;;;;;;;;;5473538;25;19978;-68
2024/04/26 16:30:41;;;;;;;;;;;;;;;;;;5489808;25;19940;-69